»·PEaware :: N101JP KCRQ-KVNY

N101JP :: KCRQ-KVNY

FLIGHT INFORMATION

Flight Status: Arrived
Operator: Privately registered:
United States
More flights under this callsign
Pilot: James T. (870)
Aircraft: PILATUS PC-12 EAGLE
(PC12)
More flights by this aircraft type
Origin: KCRQ McClellan-Palomar
United States
Destination: KVNY Van Nuys
United States
More flights between these airports :: More routes between these airports
Route: MZB293 SLI148 SLI V23 LAX LAX320 CANOG
File this flight plan on PilotEdge
Remarks:
Altitude:
(Current/Filed)
80ft
Speed:
(Current/Filed)
200kts
Departed: 15-Mar-15 11:37 AM
Arrived: 15-Mar-15 12:16 PM
Distance/Time
Traveled:
89nm/0:39
Distance/Time
To Go:
Arrived

Flight Plot

Page will automatically refresh every two minutes.


Map Options




Map Legend


Flown Route
Filed Route
Departure Airport
Arrival Airport
Navaid (VOR, NDB)
Fix

Horizontal Profiles

Position Reports

Time Latitude Longitude Heading Altitude Ground
Speed
15-Mar-15 11:19 33.126789 -117.274656 36 337ft 0kts
15-Mar-15 11:20 33.126789 -117.274656 36 337ft 0kts
15-Mar-15 11:21 33.126789 -117.274656 36 337ft 0kts
15-Mar-15 11:22 33.126789 -117.274656 36 337ft 0kts
15-Mar-15 11:23 33.126789 -117.274656 36 337ft 0kts
15-Mar-15 11:24 33.126789 -117.274656 36 337ft 0kts
15-Mar-15 11:25 33.126954 -117.274661 326 337ft 2kts
15-Mar-15 11:26 33.128347 -117.274330 73 336ft 7kts
15-Mar-15 11:27 33.128486 -117.273373 79 337ft 0kts
15-Mar-15 11:28 33.128406 -117.272602 86 337ft 10kts
15-Mar-15 11:29 33.128713 -117.272394 353 336ft 5kts
15-Mar-15 11:30 33.129263 -117.273803 258 336ft 50kts
15-Mar-15 11:31 33.124169 -117.317011 264 1340ft 153kts
15-Mar-15 11:32 33.119595 -117.369932 264 2834ft 165kts
15-Mar-15 11:33 33.114908 -117.425047 264 4436ft 167kts
15-Mar-15 11:34 33.141353 -117.463541 327 5943ft 164kts
15-Mar-15 11:35 33.178113 -117.495314 324 7378ft 163kts
15-Mar-15 11:36 33.217167 -117.530748 324 8010ft 203kts
15-Mar-15 11:37 33.268320 -117.567755 324 8003ft 231kts
15-Mar-15 11:38 33.320014 -117.615816 323 7974ft 237kts
15-Mar-15 11:39 33.371563 -117.664335 322 8004ft 236kts
15-Mar-15 11:40 33.423403 -117.713245 322 7979ft 236kts
15-Mar-15 11:41 33.474816 -117.761826 322 7980ft 236kts
15-Mar-15 11:42 33.526415 -117.810671 321 7989ft 236kts
15-Mar-15 11:43 33.576197 -117.857872 321 7990ft 236kts
15-Mar-15 11:44 33.627626 -117.906702 321 7989ft 236kts
15-Mar-15 11:45 33.678770 -117.955338 321 7993ft 242kts
15-Mar-15 11:46 33.731387 -118.005446 321 7991ft 248kts
15-Mar-15 11:47 33.782452 -118.059856 291 7943ft 251kts
15-Mar-15 11:48 33.804282 -118.137448 287 7993ft 249kts
15-Mar-15 11:49 33.824720 -118.217353 287 7998ft 250kts
15-Mar-15 11:50 33.845041 -118.297598 287 8013ft 251kts
15-Mar-15 11:51 33.876096 -118.370702 317 8020ft 250kts
15-Mar-15 11:52 33.928505 -118.427188 318 8016ft 254kts
15-Mar-15 11:53 33.987256 -118.462353 336 7999ft 218kts
15-Mar-15 11:54 34.043307 -118.493433 339 6859ft 224kts
15-Mar-15 11:55 34.102376 -118.516468 343 5971ft 212kts
15-Mar-15 11:56 34.153362 -118.536200 343 5979ft 179kts
15-Mar-15 11:57 34.199732 -118.550289 354 5999ft 166kts
15-Mar-15 11:58 34.244964 -118.555495 354 6007ft 160kts
15-Mar-15 11:59 34.286833 -118.560147 354 5999ft 159kts
15-Mar-15 12:00 34.331084 -118.565043 354 5999ft 159kts
15-Mar-15 12:01 34.375381 -118.569950 354 5998ft 160kts
15-Mar-15 12:02 34.411352 -118.555150 89 5900ft 155kts
15-Mar-15 12:03 34.385248 -118.517961 153 5001ft 143kts
15-Mar-15 12:04 34.347714 -118.502913 174 4323ft 149kts
15-Mar-15 12:05 34.308339 -118.499673 174 3233ft 134kts
15-Mar-15 12:06 34.273154 -118.496360 174 2327ft 123kts
15-Mar-15 12:07 34.239850 -118.493206 174 1483ft 114kts
15-Mar-15 12:08 34.210026 -118.490370 173 808ft 89kts
15-Mar-15 12:09 34.204369 -118.490459 221 808ft 1kts
15-Mar-15 12:10 34.205491 -118.491515 331 808ft 6kts

Navigation Log

Ident Type
Flight plan parsing failed, navigation log unavailable